Time;durP1;ratioP1;P1;durP2;ratioP2;P2;SDS_P1;SDS_P2;PMS_P1;PMS_P2;Temp;Humidity;BMP_temperature;BMP_pressure;BME280_temperature;BME280_humidity;BME280_pressure;Samples;Min_cycle;Max_cycle;Signal;HPM_P1;HPM_P2
2022/03/01 00:01:55;;;;;;;6.35;3.13;;;;;;;0.22;55.99;94509.28;5004631;28;20025;-77
2022/03/01 00:04:21;;;;;;;6.53;3.40;;;;;;;0.16;56.09;94506.56;5004467;28;20030;-77
2022/03/01 00:06:47;;;;;;;5.18;2.80;;;;;;;0.19;55.69;94497.44;5004563;28;20026;-77
2022/03/01 00:09:12;;;;;;;5.82;3.28;;;;;;;0.13;55.60;94504.41;5004547;28;20026;-77
2022/03/01 00:11:38;;;;;;;7.22;3.45;;;;;;;0.11;55.49;94506.47;5004619;28;20101;-77
2022/03/01 00:14:05;;;;;;;8.10;3.25;;;;;;;0.10;55.64;94506.69;5004178;28;20309;-76
2022/03/01 00:16:31;;;;;;;5.90;3.30;;;;;;;0.09;55.87;94503.28;5004569;28;20273;-76
2022/03/01 00:18:57;;;;;;;5.78;3.10;;;;;;;-0.04;55.32;94501.72;5004586;28;20026;-77
2022/03/01 00:21:24;;;;;;;5.90;3.13;;;;;;;-0.03;55.87;94503.28;5004321;28;20033;-76
2022/03/01 00:23:49;;;;;;;7.00;2.80;;;;;;;-0.05;55.38;94487.00;5004079;28;20018;-76
2022/03/01 00:26:15;;;;;;;10.48;3.53;;;;;;;-0.09;55.77;94498.19;5004300;28;20367;-76
2022/03/01 00:28:41;;;;;;;9.75;3.50;;;;;;;-0.15;55.54;94491.25;5004156;28;20053;-75
2022/03/01 00:31:07;;;;;;;7.72;3.47;;;;;;;-0.26;55.72;94492.88;5004239;28;20030;-76
2022/03/01 00:33:32;;;;;;;7.30;3.33;;;;;;;-0.31;55.52;94483.06;5004203;28;20359;-76
2022/03/01 00:35:59;;;;;;;7.10;3.63;;;;;;;-0.35;55.76;94483.75;5004160;28;20241;-76
2022/03/01 00:38:24;;;;;;;7.00;3.30;;;;;;;-0.40;56.18;94473.97;5003800;28;20081;-75
2022/03/01 00:40:49;;;;;;;17.40;5.82;;;;;;;-0.40;55.97;94476.59;5003750;28;20062;-75
2022/03/01 00:43:15;;;;;;;20.40;7.32;;;;;;;-0.47;56.08;94476.72;5002785;28;20037;-77
2022/03/01 00:45:41;;;;;;;12.00;5.68;;;;;;;-0.49;56.48;94475.31;5003773;28;20018;-75
2022/03/01 00:48:06;;;;;;;11.20;5.15;;;;;;;-0.57;56.27;94470.44;5003817;28;20022;-75
2022/03/01 00:50:32;;;;;;;11.27;4.30;;;;;;;-0.62;56.65;94474.53;5003649;28;20029;-75
2022/03/01 00:52:57;;;;;;;7.10;4.10;;;;;;;-0.70;57.22;94466.22;5003777;28;20089;-75
2022/03/01 00:55:22;;;;;;;6.78;4.35;;;;;;;-0.71;57.04;94460.22;5003791;28;20101;-75
2022/03/01 00:57:48;;;;;;;8.48;4.38;;;;;;;-0.78;57.17;94461.34;5003665;28;20061;-75
2022/03/01 01:00:14;;;;;;;6.55;4.07;;;;;;;-0.87;57.56;94460.88;5003605;28;20113;-75
2022/03/01 01:02:40;;;;;;;9.55;4.32;;;;;;;-0.91;57.74;94464.97;5003196;28;20366;-75
2022/03/01 01:05:06;;;;;;;9.13;4.57;;;;;;;-0.98;58.07;94462.44;5003583;28;20022;-75
2022/03/01 01:07:32;;;;;;;8.77;4.45;;;;;;;-1.01;58.09;94455.06;5003482;28;20248;-75
2022/03/01 01:09:57;;;;;;;6.50;3.45;;;;;;;-1.08;57.89;94460.41;5003708;28;20056;-76
2022/03/01 01:12:23;;;;;;;11.45;4.50;;;;;;;-1.11;57.56;94460.84;5003301;28;20030;-76
2022/03/01 01:14:48;;;;;;;7.03;3.75;;;;;;;-1.13;58.07;94462.88;5002190;28;20038;-75
2022/03/01 01:17:14;;;;;;;7.93;4.15;;;;;;;-1.15;58.10;94462.31;5002921;28;20037;-75
2022/03/01 01:19:39;;;;;;;6.78;3.63;;;;;;;-1.21;58.58;94461.38;5003417;28;20307;-75
2022/03/01 01:24:49;;;;;;;7.20;3.38;;;;;;;-1.24;58.40;94455.84;5003439;28;20061;-74
2022/03/01 01:27:15;;;;;;;8.63;2.80;;;;;;;-1.28;58.94;94459.91;5003231;28;20026;-75
2022/03/01 01:29:40;;;;;;;4.88;2.92;;;;;;;-1.30;58.20;94454.13;5003448;28;20029;-76
2022/03/01 01:32:06;;;;;;;6.90;3.10;;;;;;;-1.35;58.67;94452.16;5003313;28;20073;-76
2022/03/01 01:34:32;;;;;;;6.40;3.33;;;;;;;-1.34;58.55;94451.13;5003029;28;20308;-75
2022/03/01 01:36:57;;;;;;;5.57;2.75;;;;;;;-1.34;57.99;94442.47;5003572;28;20052;-75
2022/03/01 01:39:23;;;;;;;5.72;2.65;;;;;;;-1.37;57.89;94440.31;5003134;28;20038;-76
2022/03/01 01:41:48;;;;;;;6.05;3.25;;;;;;;-1.37;58.11;94435.09;5003103;28;20046;-76
2022/03/01 01:44:14;;;;;;;4.15;2.20;;;;;;;-1.44;57.77;94436.00;5003172;28;20038;-76
2022/03/01 01:46:39;;;;;;;5.32;2.65;;;;;;;-1.43;57.72;94437.56;5003026;28;20081;-74
2022/03/01 01:49:05;;;;;;;4.25;2.28;;;;;;;-1.45;57.79;94441.44;5003021;28;20308;-77
2022/03/01 01:51:30;;;;;;;5.28;2.72;;;;;;;-1.47;57.72;94439.03;5003241;28;20065;-75
2022/03/01 01:53:56;;;;;;;6.03;2.95;;;;;;;-1.44;57.63;94441.22;5018094;28;20288;-75
2022/03/01 01:56:21;;;;;;;7.15;2.55;;;;;;;-1.43;57.58;94434.94;5003045;28;20154;-75
2022/03/01 01:58:47;;;;;;;14.80;5.85;;;;;;;-1.46;57.86;94432.81;5002914;28;20023;-76
2022/03/01 02:01:13;;;;;;;12.13;4.97;;;;;;;-1.49;58.03;94429.84;5002971;28;20190;-76
2022/03/01 02:03:38;;;;;;;10.02;3.97;;;;;;;-1.52;57.81;94431.09;5002938;28;20022;-76
2022/03/01 02:06:04;;;;;;;7.38;3.55;;;;;;;-1.50;57.66;94431.66;5003124;28;20068;-76
2022/03/01 02:08:33;;;;;;;4.93;2.72;;;;;;;-1.52;57.51;94431.09;5003216;28;20077;-76
2022/03/01 02:10:59;;;;;;;6.47;3.40;;;;;;;-1.55;57.60;94423.66;5002927;28;20316;-76
2022/03/01 02:13:25;;;;;;;5.75;3.13;;;;;;;-1.51;57.82;94419.59;5002779;28;20036;-76
2022/03/01 02:15:51;;;;;;;4.82;2.50;;;;;;;-1.49;57.83;94420.16;5002910;28;20034;-76
2022/03/01 02:18:17;;;;;;;5.40;2.33;;;;;;;-1.50;57.45;94418.59;5002958;28;20221;-76
2022/03/01 02:20:43;;;;;;;5.72;2.20;;;;;;;-1.51;57.06;94411.75;5002679;28;20030;-77
2022/03/01 02:23:09;;;;;;;5.90;2.78;;;;;;;-1.53;57.32;94403.31;5003032;28;20072;-76
2022/03/01 02:25:34;;;;;;;5.78;2.58;;;;;;;-1.52;57.36;94397.09;5001781;28;20054;-76
2022/03/01 02:28:00;;;;;;;9.63;2.50;;;;;;;-1.53;57.40;94398.09;5004440;28;20117;-76
2022/03/01 02:30:25;;;;;;;6.32;2.53;;;;;;;-1.52;56.84;94391.88;5006308;28;20036;-76
2022/03/01 02:32:51;;;;;;;4.50;1.90;;;;;;;-1.55;56.99;94388.91;5006045;28;20030;-76
2022/03/01 02:35:17;;;;;;;3.33;1.73;;;;;;;-1.59;56.76;94388.53;5006578;28;20037;-76
2022/03/01 02:37:44;;;;;;;4.93;1.88;;;;;;;-1.53;56.96;94387.66;5006401;28;20101;-76
2022/03/01 02:40:10;;;;;;;6.43;2.17;;;;;;;-1.54;56.94;94399.13;5006252;28;20061;-76
2022/03/01 02:42:36;;;;;;;4.57;2.13;;;;;;;-1.53;57.03;94395.50;5006060;28;20096;-76
2022/03/01 02:45:04;;;;;;;4.07;1.90;;;;;;;-1.58;56.48;94392.75;5006027;28;20018;-76
2022/03/01 02:47:29;;;;;;;5.60;1.70;;;;;;;-1.49;56.32;94408.91;5006084;28;20097;-76
2022/03/01 02:49:55;;;;;;;5.45;2.53;;;;;;;-1.49;56.87;94399.25;5021249;28;20018;-77
2022/03/01 02:52:20;;;;;;;3.28;2.00;;;;;;;-1.46;57.03;94395.41;5006095;28;20022;-76
2022/03/01 02:54:46;;;;;;;4.57;2.08;;;;;;;-1.49;57.39;94394.00;5005652;28;20202;-76
2022/03/01 02:57:11;;;;;;;6.32;2.15;;;;;;;-1.47;57.16;94399.81;5005801;28;20034;-77
2022/03/01 02:59:37;;;;;;;5.57;2.20;;;;;;;-1.50;56.87;94395.06;5005875;28;20098;-76
2022/03/01 03:02:04;;;;;;;3.60;1.70;;;;;;;-1.43;57.31;94400.16;5005926;28;20086;-77
2022/03/01 03:04:30;;;;;;;6.50;1.63;;;;;;;-1.35;56.74;94401.66;5005896;28;20026;-75
2022/03/01 03:06:56;;;;;;;5.47;2.25;;;;;;;-1.31;56.87;94394.97;5005688;28;20030;-75
2022/03/01 03:09:21;;;;;;;7.10;2.50;;;;;;;-1.28;56.58;94407.59;5005818;28;20026;-75
2022/03/01 03:11:47;;;;;;;7.10;2.35;;;;;;;-1.25;56.51;94400.09;5005855;28;20027;-76
2022/03/01 03:14:12;;;;;;;4.70;2.13;;;;;;;-1.27;56.58;94398.72;5005636;28;20105;-76
2022/03/01 03:16:38;;;;;;;7.30;2.50;;;;;;;-1.23;56.31;94400.66;5005556;28;20032;-75
2022/03/01 03:19:03;;;;;;;7.72;2.63;;;;;;;-1.19;56.45;94401.00;5005762;28;20361;-75
2022/03/01 03:21:29;;;;;;;4.50;2.38;;;;;;;-1.21;56.57;94405.66;5005670;28;20217;-75
2022/03/01 03:23:54;;;;;;;6.05;2.28;;;;;;;-1.23;56.43;94400.66;5005572;28;20064;-75
2022/03/01 03:26:20;;;;;;;5.60;2.28;;;;;;;-1.23;56.55;94413.72;5005521;28;20193;-75
2022/03/01 03:28:45;;;;;;;6.38;2.28;;;;;;;-1.26;56.99;94408.19;5005296;28;20305;-75
2022/03/01 03:31:12;;;;;;;6.30;2.10;;;;;;;-1.25;56.74;94407.94;5005230;28;20041;-75
2022/03/01 03:33:38;;;;;;;4.30;2.03;;;;;;;-1.25;56.66;94407.16;5005059;28;20018;-75
2022/03/01 03:36:04;;;;;;;4.13;2.17;;;;;;;-1.27;56.94;94404.75;5005359;28;20028;-76
2022/03/01 03:38:29;;;;;;;4.13;2.03;;;;;;;-1.25;57.44;94412.38;5005204;28;20018;-77
2022/03/01 03:40:55;;;;;;;3.90;2.30;;;;;;;-1.23;57.13;94400.66;5004470;28;20457;-76
2022/03/01 03:43:20;;;;;;;5.45;2.45;;;;;;;-1.19;57.11;94406.25;5005089;28;20030;-76
2022/03/01 03:45:46;;;;;;;4.00;1.98;;;;;;;-1.16;57.03;94408.41;5005123;28;20046;-76
2022/03/01 03:48:12;;;;;;;3.88;2.05;;;;;;;-1.15;57.34;94402.16;5004966;28;20073;-77
2022/03/01 03:50:37;;;;;;;2.92;1.88;;;;;;;-1.16;56.98;94410.22;5005260;28;20339;-76
2022/03/01 03:53:03;;;;;;;3.72;2.13;;;;;;;-1.18;57.17;94413.06;5005078;28;20253;-76
2022/03/01 03:55:29;;;;;;;4.53;2.00;;;;;;;-1.16;57.37;94403.19;5004802;28;20030;-76
2022/03/01 03:57:55;;;;;;;5.78;2.42;;;;;;;-1.16;57.38;94410.22;5004895;28;20029;-76
2022/03/01 04:00:20;;;;;;;4.20;2.30;;;;;;;-1.15;57.30;94419.66;5004676;28;20069;-76
2022/03/01 04:02:47;;;;;;;4.38;2.20;;;;;;;-1.15;57.03;94406.59;5004802;28;20030;-76
2022/03/01 04:05:14;;;;;;;4.95;2.80;;;;;;;-1.18;57.10;94405.22;5004753;28;20018;-75
2022/03/01 04:07:40;;;;;;;5.03;2.42;;;;;;;-1.23;57.39;94408.50;5004473;28;20029;-76
2022/03/01 04:10:07;;;;;;;8.40;3.30;;;;;;;-1.25;57.35;94396.69;5004654;28;20022;-75
2022/03/01 04:12:33;;;;;;;5.63;2.88;;;;;;;-1.36;57.30;94405.28;5004725;28;20018;-75
2022/03/01 04:14:58;;;;;;;4.22;2.03;;;;;;;-1.34;57.27;94414.53;5004508;28;20090;-76
2022/03/01 04:17:24;;;;;;;4.35;2.45;;;;;;;-1.43;57.55;94400.16;5004450;28;20309;-76
2022/03/01 04:19:51;;;;;;;6.40;2.47;;;;;;;-1.47;57.63;94401.66;5004317;28;20030;-76
2022/03/01 04:22:16;;;;;;;8.38;3.60;;;;;;;-1.52;57.46;94404.94;5004537;28;20022;-76
2022/03/01 04:24:42;;;;;;;10.70;4.75;;;;;;;-1.56;57.72;94392.56;5004412;28;20025;-76
2022/03/01 04:27:07;;;;;;;11.55;5.22;;;;;;;-1.58;57.83;94397.19;5004294;28;20218;-76
2022/03/01 04:29:33;;;;;;;8.00;3.65;;;;;;;-1.60;57.92;94399.25;5004386;28;20252;-76
2022/03/01 04:31:58;;;;;;;6.70;3.10;;;;;;;-1.63;57.87;94398.66;5004132;28;20031;-76
2022/03/01 04:34:23;;;;;;;7.15;3.42;;;;;;;-1.62;58.26;94402.06;5004223;28;20061;-76
2022/03/01 04:36:49;;;;;;;6.15;2.90;;;;;;;-1.63;58.52;94395.25;5002930;28;20045;-76
2022/03/01 04:39:14;;;;;;;5.72;3.00;;;;;;;-1.63;57.96;94400.47;5004156;28;20023;-76
2022/03/01 04:41:40;;;;;;;4.63;2.55;;;;;;;-1.65;58.28;94402.50;5003825;28;20050;-76
2022/03/01 04:44:05;;;;;;;5.78;3.30;;;;;;;-1.64;58.30;94406.72;5003843;28;20019;-75
2022/03/01 04:46:32;;;;;;;5.90;3.33;;;;;;;-1.63;58.57;94405.69;5003963;28;20374;-75
2022/03/01 04:48:57;;;;;;;6.70;2.97;;;;;;;-1.65;58.70;94412.97;5003794;28;20355;-75
2022/03/01 04:51:23;;;;;;;5.80;3.30;;;;;;;-1.61;58.39;94403.66;5002993;28;20022;-75
2022/03/01 04:53:51;;;;;;;7.90;3.67;;;;;;;-1.66;58.23;94406.16;5003396;28;20037;-75
2022/03/01 04:56:17;;;;;;;7.43;3.97;;;;;;;-1.66;58.85;94406.16;5003636;28;20073;-75
2022/03/01 04:58:44;;;;;;;7.88;3.47;;;;;;;-1.67;58.85;94410.59;5003595;28;20018;-76
2022/03/01 05:01:09;;;;;;;5.80;2.75;;;;;;;-1.66;58.39;94414.00;5003729;28;20053;-75
2022/03/01 05:03:35;;;;;;;5.43;3.60;;;;;;;-1.68;58.38;94416.81;5003839;28;20018;-76
2022/03/01 05:06:00;;;;;;;7.07;3.47;;;;;;;-1.68;58.58;94416.03;5003523;28;20037;-76
2022/03/01 05:08:30;;;;;;;14.00;4.18;;;;;;;-1.71;58.58;94422.50;5003257;28;20253;-76
2022/03/01 05:10:59;;;;;;;10.95;4.30;;;;;;;-1.71;58.82;94419.09;5003373;28;20044;-77
2022/03/01 05:13:25;;;;;;;7.93;3.42;;;;;;;-1.76;58.63;94416.34;5003197;28;20038;-76
2022/03/01 05:15:51;;;;;;;7.72;3.92;;;;;;;-1.71;58.39;94421.69;5003345;28;20025;-76
2022/03/01 05:18:16;;;;;;;8.10;3.70;;;;;;;-1.74;57.89;94425.56;5003220;28;20048;-76
2022/03/01 05:20:42;;;;;;;6.63;3.78;;;;;;;-1.71;57.83;94413.84;5003210;28;20022;-76
2022/03/01 05:23:08;;;;;;;6.95;3.22;;;;;;;-1.80;58.06;94420.44;5003452;28;20018;-76
2022/03/01 05:25:33;;;;;;;6.40;3.00;;;;;;;-1.80;58.20;94418.59;5003353;28;20022;-76
2022/03/01 05:27:59;;;;;;;5.03;2.40;;;;;;;-1.76;58.10;94422.38;5001883;28;20228;-76
2022/03/01 05:30:25;;;;;;;6.10;2.75;;;;;;;-1.68;57.72;94426.50;5003167;28;20018;-76
2022/03/01 05:32:52;;;;;;;8.23;3.80;;;;;;;-1.72;58.04;94420.91;5003076;28;20018;-75
2022/03/01 05:35:19;;;;;;;4.13;2.33;;;;;;;-1.70;57.88;94428.53;5003058;28;20029;-75
2022/03/01 05:37:52;;;;;;;4.50;2.38;;;;;;;-1.72;58.39;94417.50;5003023;28;20018;-76
2022/03/01 05:40:18;;;;;;;6.28;2.83;;;;;;;-1.74;58.01;94427.38;5002896;28;20062;-74
2022/03/01 05:42:43;;;;;;;4.93;2.42;;;;;;;-1.73;58.33;94426.34;5003012;28;20050;-74
2022/03/01 05:45:11;;;;;;;6.15;2.75;;;;;;;-1.72;58.36;94433.97;5003194;28;20057;-75
2022/03/01 05:47:37;;;;;;;5.68;2.88;;;;;;;-1.70;58.23;94431.16;5018273;28;20352;-75
2022/03/01 05:50:03;;;;;;;7.53;3.40;;;;;;;-1.62;58.52;94438.66;5002725;28;20022;-75
2022/03/01 05:52:29;;;;;;;8.88;3.13;;;;;;;-1.59;58.40;94435.59;5002963;28;20018;-75
2022/03/01 05:54:55;;;;;;;7.75;3.58;;;;;;;-1.51;58.44;94445.72;5002704;28;20037;-76
2022/03/01 05:57:24;;;;;;;7.93;3.50;;;;;;;-1.45;58.67;94442.22;5002976;28;20045;-75
2022/03/01 05:59:49;;;;;;;8.52;4.10;;;;;;;-1.36;58.19;94447.13;5002677;28;20030;-76
2022/03/01 06:02:14;;;;;;;5.82;3.38;;;;;;;-1.29;58.53;94446.03;5018510;28;20049;-76
2022/03/01 06:04:40;;;;;;;10.32;4.55;;;;;;;-1.30;58.23;94459.34;5007019;28;20022;-76
2022/03/01 06:07:05;;;;;;;9.10;4.57;;;;;;;-1.22;58.38;94456.41;5007255;28;20022;-76
2022/03/01 06:09:31;;;;;;;7.03;3.50;;;;;;;-1.12;57.92;94459.25;5006660;28;20026;-76
2022/03/01 06:11:56;;;;;;;9.27;4.00;;;;;;;-1.06;58.35;94447.06;5007037;28;20026;-76
2022/03/01 06:14:22;;;;;;;7.47;3.45;;;;;;;-0.94;58.26;94458.34;5006806;28;20308;-76
2022/03/01 06:16:47;;;;;;;8.35;4.32;;;;;;;-0.87;58.38;94460.88;5006865;28;20018;-76
2022/03/01 06:19:13;;;;;;;7.50;4.35;;;;;;;-0.75;58.08;94464.31;5006665;28;20225;-76
2022/03/01 06:21:38;;;;;;;9.75;5.00;;;;;;;-0.65;58.36;94466.34;5006913;28;20026;-76
2022/03/01 06:24:04;;;;;;;7.53;4.15;;;;;;;-0.59;58.23;94456.78;5006671;28;20025;-77
2022/03/01 06:26:31;;;;;;;8.93;5.03;;;;;;;-0.49;58.10;94460.44;5006614;28;20222;-77
2022/03/01 06:28:56;;;;;;;9.30;4.60;;;;;;;-0.39;57.80;94457.22;5006788;28;20026;-77
2022/03/01 06:31:22;;;;;;;8.00;3.90;;;;;;;-0.36;57.56;94455.97;5006379;28;20221;-75
2022/03/01 06:33:47;;;;;;;7.78;4.28;;;;;;;-0.30;57.74;94457.66;5006184;28;20034;-75
2022/03/01 06:36:13;;;;;;;9.30;3.83;;;;;;;-0.13;57.37;94455.13;5006153;28;20068;-77
2022/03/01 06:38:38;;;;;;;8.68;3.97;;;;;;;-0.18;57.25;94457.63;5006033;28;20045;-75
2022/03/01 06:41:04;;;;;;;7.32;3.67;;;;;;;-0.09;57.29;94462.28;5006006;28;20073;-76
2022/03/01 06:43:29;;;;;;;5.80;3.33;;;;;;;0.03;57.35;94451.78;5005915;28;20097;-76
2022/03/01 06:45:55;;;;;;;5.55;3.00;;;;;;;0.16;56.89;94454.16;5006164;28;20352;-78
2022/03/01 06:48:20;;;;;;;5.97;3.53;;;;;;;0.23;56.92;94458.47;5020922;28;20325;-76
2022/03/01 06:50:46;;;;;;;6.72;3.25;;;;;;;0.25;56.27;94461.66;5006255;28;20069;-75
2022/03/01 06:53:13;;;;;;;6.80;3.65;;;;;;;0.29;56.15;94460.16;5006063;28;20030;-75
2022/03/01 06:55:44;;;;;;;6.25;3.13;;;;;;;0.33;55.86;94456.81;5006196;28;20030;-75
2022/03/01 06:58:11;;;;;;;5.93;3.58;;;;;;;0.36;56.07;94458.16;5005825;28;20342;-76
2022/03/01 07:00:36;;;;;;;8.90;4.20;;;;;;;0.40;55.91;94454.03;5006185;28;20022;-76
2022/03/01 07:03:03;;;;;;;8.45;4.82;;;;;;;0.48;57.01;94450.25;5005941;28;20417;-76
2022/03/01 07:05:28;;;;;;;10.07;4.88;;;;;;;0.56;57.10;94455.91;5021147;28;20212;-76
2022/03/01 07:07:53;;;;;;;10.18;4.53;;;;;;;0.64;56.75;94459.19;5005662;28;20022;-76
2022/03/01 07:10:19;;;;;;;7.22;4.07;;;;;;;0.73;57.00;94458.59;5005718;28;20026;-76
2022/03/01 07:12:45;;;;;;;9.93;4.53;;;;;;;0.83;56.20;94454.53;5005772;28;20026;-76
2022/03/01 07:15:11;;;;;;;9.30;4.03;;;;;;;0.87;56.29;94453.00;5004926;28;20265;-76
2022/03/01 07:17:37;;;;;;;5.35;3.08;;;;;;;0.92;55.16;94451.28;5007038;28;20037;-87
2022/03/01 07:20:11;;;;;;;6.50;3.42;;;;;;;0.95;54.92;94463.91;5005504;28;20033;-86
2022/03/01 07:22:37;;;;;;;6.75;3.70;;;;;;;1.03;55.01;94461.94;5005106;28;20093;-84
2022/03/01 07:25:04;;;;;;;6.68;3.72;;;;;;;1.06;54.79;94464.88;5005110;28;20015;-87
2022/03/01 07:27:29;;;;;;;8.73;3.78;;;;;;;1.10;54.57;94463.38;5005501;28;20018;-83
2022/03/01 07:29:55;;;;;;;7.28;3.90;;;;;;;1.20;54.36;94462.72;5005327;28;20032;-83
2022/03/01 07:32:47;;;;;;;;;;;;;;;;;;;;;
2022/03/01 07:35:13;;;;;;;8.35;3.80;;;;;;;1.36;53.94;94454.06;5005062;28;20073;-83
2022/03/01 07:37:38;;;;;;;6.22;3.80;;;;;;;1.43;54.19;94460.97;5005308;28;20320;-83
2022/03/01 07:40:10;;;;;;;8.65;3.80;;;;;;;1.50;54.06;94451.06;5005041;28;20050;-84
2022/03/01 07:42:39;;;;;;;6.03;3.30;;;;;;;1.60;54.15;94461.72;5005104;28;20093;-85
2022/03/01 07:45:08;;;;;;;6.43;3.58;;;;;;;1.66;53.70;94455.50;5005113;28;20014;-85
2022/03/01 07:48:03;;;;;;;6.78;3.85;;;;;;;1.79;53.68;94460.44;5005257;28;20018;-85
2022/03/01 07:50:51;;;;;;;5.40;3.53;;;;;;;1.90;53.23;94455.31;5005122;28;20046;-81
2022/03/01 07:53:17;;;;;;;6.65;3.45;;;;;;;1.98;53.17;94454.88;5006400;28;20034;-86
2022/03/01 07:55:42;;;;;;;8.13;3.75;;;;;;;2.07;52.53;94450.75;5004547;28;20033;-82
2022/03/01 07:58:08;;;;;;;9.82;4.43;;;;;;;2.16;52.39;94453.78;5018621;28;20296;-84
2022/03/01 08:00:34;;;;;;;8.82;4.53;;;;;;;2.21;52.43;94462.50;5019709;28;20198;-82
2022/03/01 08:02:59;;;;;;;7.95;4.10;;;;;;;2.23;52.45;94454.38;5004893;28;20101;-88
2022/03/01 08:08:56;;;;;;;25.67;11.45;;;;;;;2.33;52.22;94451.84;5001239;28;20037;-86
2022/03/01 08:11:40;;;;;;;10.60;5.00;;;;;;;2.40;51.68;94459.53;5005589;28;20093;-92
2022/03/01 08:14:31;;;;;;;7.70;4.65;;;;;;;2.45;51.86;94450.94;5006071;28;20033;-87
2022/03/01 08:17:15;;;;;;;9.07;4.72;;;;;;;2.43;51.61;94461.69;4993833;28;20113;-90
2022/03/01 08:19:43;;;;;;;10.85;5.25;;;;;;;2.48;51.82;94461.72;5005288;28;20026;-84
2022/03/01 08:22:12;;;;;;;8.27;4.05;;;;;;;2.57;51.91;94462.91;5004549;28;20309;-85
2022/03/01 08:25:07;;;;;;;;;;;;;;;;;;;;;
2022/03/01 08:27:45;;;;;;;10.30;4.95;;;;;;;2.64;51.75;94462.69;5003937;28;20072;-88
2022/03/01 08:30:36;;;;;;;7.95;4.00;;;;;;;2.64;51.64;94465.31;5004305;28;20061;-92
2022/03/01 08:36:09;;;;;;;7.18;5.10;;;;;;;2.74;51.22;94465.41;5004599;28;20333;-88
2022/03/01 08:38:36;;;;;;;14.13;5.38;;;;;;;2.75;51.03;94459.13;5004345;28;20086;-89
2022/03/01 08:41:02;;;;;;;8.00;4.15;;;;;;;2.86;50.78;94472.38;5004203;28;20042;-85
2022/03/01 08:43:30;;;;;;;11.50;4.32;;;;;;;2.88;50.58;94465.81;5004319;28;20334;-88
2022/03/01 08:45:56;;;;;;;12.70;4.78;;;;;;;2.92;50.46;94466.91;5004734;28;20033;-90
2022/03/01 08:48:22;;;;;;;8.98;4.40;;;;;;;3.04;50.40;94465.97;5004356;28;20022;-84
2022/03/01 08:50:47;;;;;;;8.88;4.25;;;;;;;3.00;50.10;94458.56;5002858;28;20022;-84
2022/03/01 08:53:16;;;;;;;9.98;4.22;;;;;;;3.11;49.74;94454.16;5004084;28;20033;-88
2022/03/01 08:55:42;;;;;;;10.00;4.63;;;;;;;3.18;50.13;94469.78;5019368;28;20030;-84
2022/03/01 08:58:07;;;;;;;10.32;4.53;;;;;;;3.25;49.59;94459.78;5002889;28;20026;-87
2022/03/01 09:00:33;;;;;;;8.80;3.85;;;;;;;3.33;49.31;94467.25;5002901;28;20030;-86
2022/03/01 09:02:59;;;;;;;7.63;4.00;;;;;;;3.37;49.20;94464.91;5004178;28;20201;-88
2022/03/01 09:05:25;;;;;;;8.70;4.05;;;;;;;3.49;49.05;94467.34;5019381;28;20033;-90
2022/03/01 09:07:51;;;;;;;10.73;3.60;;;;;;;3.56;48.53;94460.00;5004128;28;20260;-82
2022/03/01 09:10:21;;;;;;;10.25;3.88;;;;;;;3.57;48.20;94465.03;5003953;28;20033;-85
2022/03/01 09:12:49;;;;;;;12.73;4.35;;;;;;;3.58;48.01;94458.72;5004338;28;20022;-89
2022/03/01 09:15:14;;;;;;;10.80;5.32;;;;;;;3.64;48.28;94471.94;5019925;28;20026;-92
2022/03/01 09:17:40;;;;;;;11.05;5.30;;;;;;;3.71;48.32;94473.31;5004603;28;20102;-93
2022/03/01 09:20:06;;;;;;;13.27;6.15;;;;;;;3.73;47.97;94471.19;5004188;28;20049;-85
2022/03/01 09:22:31;;;;;;;8.75;4.72;;;;;;;3.83;47.25;94475.75;5004001;28;20101;-88
2022/03/01 09:24:57;;;;;;;8.98;3.67;;;;;;;3.94;47.07;94480.00;5003580;28;20252;-80
2022/03/01 09:27:23;;;;;;;11.77;3.22;;;;;;;4.00;45.88;94473.72;5003753;28;20309;-90
2022/03/01 09:29:48;;;;;;;7.00;2.80;;;;;;;4.05;45.08;94469.50;5003467;28;20034;-79
2022/03/01 09:32:15;;;;;;;7.53;3.40;;;;;;;4.13;45.21;94469.84;5003452;28;20022;-79
2022/03/01 09:34:40;;;;;;;6.57;3.47;;;;;;;4.23;45.68;94474.34;5003803;28;20213;-84
2022/03/01 09:37:06;;;;;;;6.30;3.55;;;;;;;4.28;44.74;94470.94;5003023;28;20022;-88
2022/03/01 09:39:31;;;;;;;6.93;3.70;;;;;;;4.37;44.46;94474.66;5003359;28;20036;-87
2022/03/01 09:41:57;;;;;;;7.32;3.47;;;;;;;4.41;44.16;94470.44;4964690;28;20094;-85
2022/03/01 09:44:23;;;;;;;7.38;3.13;;;;;;;4.52;43.25;94472.09;4964459;28;20027;-83
2022/03/01 09:46:49;;;;;;;5.95;2.90;;;;;;;4.58;43.24;94476.31;4964504;28;20318;-80
2022/03/01 09:49:16;;;;;;;4.97;2.42;;;;;;;4.66;42.66;94471.56;4963488;28;20381;-85
2022/03/01 09:51:42;;;;;;;4.82;2.75;;;;;;;4.68;42.82;94469.47;4964963;28;20057;-81
2022/03/01 09:54:07;;;;;;;7.68;2.67;;;;;;;4.66;43.07;94471.56;4964489;28;20039;-83
2022/03/01 09:56:33;;;;;;;4.70;2.42;;;;;;;4.68;43.40;94472.13;4964227;28;20027;-85
2022/03/01 09:59:00;;;;;;;5.88;3.17;;;;;;;4.66;42.95;94468.94;4964135;28;20102;-83
2022/03/01 10:01:25;;;;;;;9.77;2.90;;;;;;;4.68;43.05;94459.72;4964732;28;20034;-84
2022/03/01 10:03:52;;;;;;;6.18;3.35;;;;;;;4.76;43.48;94464.50;4964674;28;20314;-84
2022/03/01 10:06:22;;;;;;;6.40;3.08;;;;;;;4.89;43.15;94465.81;4964837;28;20278;-82
2022/03/01 10:08:54;;;;;;;7.93;3.22;;;;;;;4.96;43.32;94455.00;4964385;28;20029;-78
2022/03/01 10:11:20;;;;;;;;;;;;;;;5.06;43.09;94454.22;4964549;28;20023;-88
2022/03/01 10:13:46;;;;;;;7.40;3.35;;;;;;;5.05;43.15;94460.53;4964146;28;19986;-84
2022/03/01 10:16:18;;;;;;;8.52;3.58;;;;;;;5.14;43.76;94446.56;4964504;28;20034;-83
2022/03/01 10:18:52;;;;;;;9.52;3.55;;;;;;;5.25;43.93;94454.47;4964618;28;20050;-82
2022/03/01 10:21:19;;;;;;;7.00;3.60;;;;;;;5.38;43.05;94452.09;4964404;28;20031;-88
2022/03/01 10:23:48;;;;;;;6.10;3.05;;;;;;;5.52;42.33;94456.88;4964407;28;20032;-87
2022/03/01 10:26:27;;;;;;;5.97;2.83;;;;;;;5.69;42.08;94452.06;4964802;28;20031;-88
2022/03/01 10:28:54;;;;;;;5.60;3.45;;;;;;;5.84;40.87;94440.66;4964553;28;20230;-89
2022/03/01 10:31:24;;;;;;;10.82;3.20;;;;;;;5.97;41.28;94436.69;4964373;28;20031;-80
2022/03/01 10:34:06;;;;;;;8.18;3.63;;;;;;;6.10;40.98;94449.34;4964017;28;20278;-81
2022/03/01 10:36:33;;;;;;;10.88;3.40;;;;;;;6.21;41.28;94440.31;4964133;28;20094;-81
2022/03/01 10:38:59;;;;;;;5.57;2.78;;;;;;;6.31;40.48;94436.03;4964187;28;20042;-80
2022/03/01 10:41:27;;;;;;;4.93;2.65;;;;;;;6.36;40.12;94442.09;4992777;28;20332;-76
2022/03/01 10:43:54;;;;;;;6.45;2.97;;;;;;;6.39;39.77;94436.28;5002841;28;20038;-77
2022/03/01 10:46:20;;;;;;;7.07;3.45;;;;;;;6.47;39.89;94428.81;5002572;28;20030;-82
2022/03/01 10:48:45;;;;;;;7.70;3.42;;;;;;;6.58;39.54;94423.19;5002801;28;20022;-80
2022/03/01 10:51:19;;;;;;;5.70;3.38;;;;;;;6.65;39.33;94419.44;5005986;28;20026;-79
2022/03/01 10:53:45;;;;;;;8.02;4.00;;;;;;;6.67;39.24;94412.81;5006198;28;20037;-79
2022/03/01 10:59:16;;;;;;;7.75;3.50;;;;;;;6.67;39.40;94404.06;5000220;28;20038;-82
2022/03/01 11:01:41;;;;;;;6.78;3.33;;;;;;;6.60;38.86;94412.31;5005887;28;20025;-75
2022/03/01 11:04:07;;;;;;;5.97;3.30;;;;;;;6.51;38.73;94414.75;5006278;28;20018;-76
2022/03/01 11:06:34;;;;;;;9.93;4.57;;;;;;;6.47;39.06;94403.09;5006171;28;20026;-78
2022/03/01 11:09:02;;;;;;;11.07;4.10;;;;;;;6.37;39.50;94411.09;5006231;28;20320;-78
2022/03/01 11:11:30;;;;;;;10.40;3.60;;;;;;;6.31;39.44;94412.19;5006893;28;20022;-78
2022/03/01 11:13:56;;;;;;;6.47;3.45;;;;;;;6.29;39.13;94401.91;5005633;28;20061;-78
2022/03/01 11:16:50;;;;;;;11.50;4.32;;;;;;;6.27;40.00;94404.03;5006574;28;20029;-78
2022/03/01 11:19:45;;;;;;;6.32;3.40;;;;;;;6.27;39.53;94400.56;5006549;28;20034;-78
2022/03/01 11:22:32;;;;;;;4.78;3.13;;;;;;;6.36;40.05;94396.31;4996084;28;20034;-79
2022/03/01 11:24:58;;;;;;;5.50;3.42;;;;;;;6.36;40.40;94394.44;5005695;28;20065;-76
2022/03/01 11:27:26;;;;;;;7.35;3.63;;;;;;;6.40;40.01;94387.53;5005490;28;20304;-77
2022/03/01 11:30:03;;;;;;;8.00;4.20;;;;;;;6.41;40.51;94388.31;5005476;28;20070;-80
2022/03/01 11:32:38;;;;;;;7.75;3.72;;;;;;;6.48;40.34;94388.81;5005416;28;20089;-77
2022/03/01 11:35:04;;;;;;;6.68;3.78;;;;;;;6.60;39.35;94386.63;5005289;28;20036;-76
2022/03/01 11:37:30;;;;;;;8.95;4.07;;;;;;;6.53;39.21;94380.81;5005138;28;20382;-80
2022/03/01 11:39:58;;;;;;;5.90;3.30;;;;;;;6.49;39.32;94371.06;5004953;28;20050;-84
2022/03/01 11:42:24;;;;;;;10.93;5.05;;;;;;;6.31;40.08;94375.94;5006003;28;20023;-86
2022/03/01 11:44:58;;;;;;;10.60;5.22;;;;;;;6.26;40.23;94377.81;5005338;28;20025;-79
2022/03/01 11:47:34;;;;;;;9.95;4.35;;;;;;;6.28;40.13;94370.41;5005057;28;20320;-79
2022/03/01 11:50:18;;;;;;;10.07;4.60;;;;;;;6.28;40.32;94373.81;5005320;28;20088;-82
2022/03/01 11:53:06;;;;;;;11.40;4.57;;;;;;;6.20;41.21;94366.47;5005487;28;20317;-87